sensor_id;sensor_type;location;lat;lon;timestamp;pressure;altitude;pressure_sealevel;temperature;humidity
64158;BME280;50449;51.528;5.076;2023-06-10T00:00:43;101265.50;;;31.13;29.32
64158;BME280;50449;51.528;5.076;2023-06-10T00:03:10;101263.44;;;31.10;29.52
64158;BME280;50449;51.528;5.076;2023-06-10T00:05:35;101269.75;;;31.07;29.36
64158;BME280;50449;51.528;5.076;2023-06-10T00:08:04;101264.13;;;31.03;29.47
64158;BME280;50449;51.528;5.076;2023-06-10T00:10:33;101269.25;;;31.01;29.41
64158;BME280;50449;51.528;5.076;2023-06-10T00:13:00;101260.00;;;30.97;29.50
64158;BME280;50449;51.528;5.076;2023-06-10T00:15:26;101268.75;;;30.95;29.53
64158;BME280;50449;51.528;5.076;2023-06-10T00:17:51;101269.50;;;30.92;29.52
64158;BME280;50449;51.528;5.076;2023-06-10T00:20:20;101270.22;;;30.89;29.49
64158;BME280;50449;51.528;5.076;2023-06-10T00:22:47;101271.75;;;30.87;29.66
64158;BME280;50449;51.528;5.076;2023-06-10T00:25:14;101269.72;;;30.83;29.60
64158;BME280;50449;51.528;5.076;2023-06-10T00:27:39;101277.63;;;30.81;29.73
64158;BME280;50449;51.528;5.076;2023-06-10T00:30:05;101269.19;;;30.78;29.84
64158;BME280;50449;51.528;5.076;2023-06-10T00:32:35;101269.53;;;30.76;29.64
64158;BME280;50449;51.528;5.076;2023-06-10T00:35:01;101268.69;;;30.72;29.73
64158;BME280;50449;51.528;5.076;2023-06-10T00:37:27;101270.22;;;30.70;30.00
64158;BME280;50449;51.528;5.076;2023-06-10T00:39:54;101268.16;;;30.67;29.82
64158;BME280;50449;51.528;5.076;2023-06-10T00:42:19;101267.72;;;30.65;29.68
64158;BME280;50449;51.528;5.076;2023-06-10T00:44:44;101268.84;;;30.60;29.89
64158;BME280;50449;51.528;5.076;2023-06-10T00:47:10;101271.97;;;30.58;29.90
64158;BME280;50449;51.528;5.076;2023-06-10T00:49:36;101272.72;;;30.55;29.98
64158;BME280;50449;51.528;5.076;2023-06-10T00:52:03;101268.69;;;30.53;29.97
64158;BME280;50449;51.528;5.076;2023-06-10T00:54:30;101269.03;;;30.51;30.08
64158;BME280;50449;51.528;5.076;2023-06-10T00:56:56;101268.97;;;30.48;30.06
64158;BME280;50449;51.528;5.076;2023-06-10T00:59:21;101267.72;;;30.45;30.44
64158;BME280;50449;51.528;5.076;2023-06-10T01:01:47;101264.50;;;30.43;30.24
64158;BME280;50449;51.528;5.076;2023-06-10T01:04:13;101268.00;;;30.40;30.13
64158;BME280;50449;51.528;5.076;2023-06-10T01:06:41;101267.56;;;30.38;29.80
64158;BME280;50449;51.528;5.076;2023-06-10T01:11:47;101263.47;;;30.32;30.45
64158;BME280;50449;51.528;5.076;2023-06-10T01:14:16;101275.31;;;30.29;30.06
64158;BME280;50449;51.528;5.076;2023-06-10T01:16:42;101271.28;;;30.26;30.22
64158;BME280;50449;51.528;5.076;2023-06-10T01:19:11;101273.66;;;30.24;30.25
64158;BME280;50449;51.528;5.076;2023-06-10T01:21:37;101270.75;;;30.20;30.37
64158;BME280;50449;51.528;5.076;2023-06-10T01:24:04;101272.28;;;30.18;30.36
64158;BME280;50449;51.528;5.076;2023-06-10T01:26:34;101276.59;;;30.15;30.25
64158;BME280;50449;51.528;5.076;2023-06-10T01:29:07;101273.75;;;30.12;30.34
64158;BME280;50449;51.528;5.076;2023-06-10T01:31:45;101264.94;;;30.10;30.38
64158;BME280;50449;51.528;5.076;2023-06-10T01:34:14;101274.03;;;30.07;30.22
64158;BME280;50449;51.528;5.076;2023-06-10T01:36:44;101277.50;;;30.04;30.46
64158;BME280;50449;51.528;5.076;2023-06-10T01:39:11;101271.88;;;30.00;30.44
64158;BME280;50449;51.528;5.076;2023-06-10T01:41:38;101274.22;;;29.98;30.40
64158;BME280;50449;51.528;5.076;2023-06-10T01:44:05;101270.16;;;29.95;30.43
64158;BME280;50449;51.528;5.076;2023-06-10T01:46:30;101271.34;;;29.94;30.56
64158;BME280;50449;51.528;5.076;2023-06-10T01:48:55;101273.22;;;29.90;30.68
64158;BME280;50449;51.528;5.076;2023-06-10T01:51:21;101280.34;;;29.88;30.47
64158;BME280;50449;51.528;5.076;2023-06-10T01:53:46;101279.09;;;29.85;30.48
64158;BME280;50449;51.528;5.076;2023-06-10T01:56:12;101281.41;;;29.83;30.51
64158;BME280;50449;51.528;5.076;2023-06-10T01:58:43;101279.34;;;29.80;30.61
64158;BME280;50449;51.528;5.076;2023-06-10T02:01:09;101279.28;;;29.76;30.70
64158;BME280;50449;51.528;5.076;2023-06-10T02:03:34;101281.63;;;29.74;30.53
64158;BME280;50449;51.528;5.076;2023-06-10T02:06:00;101283.16;;;29.72;30.34
64158;BME280;50449;51.528;5.076;2023-06-10T02:08:25;101282.69;;;29.70;30.47
64158;BME280;50449;51.528;5.076;2023-06-10T02:10:52;101286.19;;;29.67;30.26
64158;BME280;50449;51.528;5.076;2023-06-10T02:13:18;101282.13;;;29.64;30.44
64158;BME280;50449;51.528;5.076;2023-06-10T02:15:43;101279.25;;;29.61;30.67
64158;BME280;50449;51.528;5.076;2023-06-10T02:18:09;101282.41;;;29.59;30.73
64158;BME280;50449;51.528;5.076;2023-06-10T02:20:35;101280.69;;;29.54;30.51
64158;BME280;50449;51.528;5.076;2023-06-10T02:23:00;101285.00;;;29.52;30.78
64158;BME280;50449;51.528;5.076;2023-06-10T02:25:26;101283.75;;;29.49;30.71
64158;BME280;50449;51.528;5.076;2023-06-10T02:27:51;101286.41;;;29.46;30.80
64158;BME280;50449;51.528;5.076;2023-06-10T02:30:17;101289.59;;;29.44;30.88
64158;BME280;50449;51.528;5.076;2023-06-10T02:32:42;101288.66;;;29.40;30.60
64158;BME280;50449;51.528;5.076;2023-06-10T02:35:13;101288.59;;;29.37;30.74
64158;BME280;50449;51.528;5.076;2023-06-10T02:37:38;101290.91;;;29.34;30.72
64158;BME280;50449;51.528;5.076;2023-06-10T02:40:04;101298.00;;;29.32;30.72
64158;BME280;50449;51.528;5.076;2023-06-10T02:42:31;101295.94;;;29.29;30.77
64158;BME280;50449;51.528;5.076;2023-06-10T02:44:56;101291.09;;;29.26;31.07
64158;BME280;50449;51.528;5.076;2023-06-10T02:47:21;101289.00;;;29.23;30.99
64158;BME280;50449;51.528;5.076;2023-06-10T02:49:47;101298.88;;;29.20;31.17
64158;BME280;50449;51.528;5.076;2023-06-10T02:52:12;101292.06;;;29.18;30.95
64158;BME280;50449;51.528;5.076;2023-06-10T02:54:38;101295.56;;;29.15;30.87
64158;BME280;50449;51.528;5.076;2023-06-10T02:57:03;101283.16;;;29.12;31.01
64158;BME280;50449;51.528;5.076;2023-06-10T02:59:30;101288.66;;;29.08;31.07
64158;BME280;50449;51.528;5.076;2023-06-10T03:01:55;101285.41;;;29.06;31.31
64158;BME280;50449;51.528;5.076;2023-06-10T03:04:21;101299.16;;;29.03;31.17
64158;BME280;50449;51.528;5.076;2023-06-10T03:06:48;101292.34;;;29.00;31.15
64158;BME280;50449;51.528;5.076;2023-06-10T03:09:14;101293.88;;;28.98;31.29
64158;BME280;50449;51.528;5.076;2023-06-10T03:11:39;101289.00;;;28.95;31.46
64158;BME280;50449;51.528;5.076;2023-06-10T03:14:05;101295.28;;;28.91;31.37
64158;BME280;50449;51.528;5.076;2023-06-10T03:16:30;101296.81;;;28.89;31.48
64158;BME280;50449;51.528;5.076;2023-06-10T03:18:56;101303.09;;;28.86;31.27
64158;BME280;50449;51.528;5.076;2023-06-10T03:21:22;101307.38;;;28.83;31.29
64158;BME280;50449;51.528;5.076;2023-06-10T03:23:47;101301.69;;;28.80;31.53
64158;BME280;50449;51.528;5.076;2023-06-10T03:26:13;101299.63;;;28.77;31.54
64158;BME280;50449;51.528;5.076;2023-06-10T03:28:39;101309.50;;;28.74;31.53
64158;BME280;50449;51.528;5.076;2023-06-10T03:31:05;101308.56;;;28.70;31.62
64158;BME280;50449;51.528;5.076;2023-06-10T03:33:30;101306.50;;;28.67;31.46
64158;BME280;50449;51.528;5.076;2023-06-10T03:35:56;101313.56;;;28.64;31.90
64158;BME280;50449;51.528;5.076;2023-06-10T03:38:21;101315.88;;;28.62;31.65
64158;BME280;50449;51.528;5.076;2023-06-10T03:40:47;101309.44;;;28.58;31.63
64158;BME280;50449;51.528;5.076;2023-06-10T03:43:12;101310.16;;;28.55;31.82
64158;BME280;50449;51.528;5.076;2023-06-10T03:45:38;101308.88;;;28.53;31.75
64158;BME280;50449;51.528;5.076;2023-06-10T03:48:04;101315.94;;;28.50;31.71
64158;BME280;50449;51.528;5.076;2023-06-10T03:50:29;101311.88;;;28.47;31.88
64158;BME280;50449;51.528;5.076;2023-06-10T03:52:55;101309.81;;;28.44;32.03
64158;BME280;50449;51.528;5.076;2023-06-10T03:55:20;101306.91;;;28.41;31.89
64158;BME280;50449;51.528;5.076;2023-06-10T03:57:47;101305.63;;;28.38;32.20
64158;BME280;50449;51.528;5.076;2023-06-10T04:00:14;101307.16;;;28.36;32.13
64158;BME280;50449;51.528;5.076;2023-06-10T04:02:40;101315.00;;;28.34;32.33
64158;BME280;50449;51.528;5.076;2023-06-10T04:05:15;101303.81;;;28.30;32.43
64158;BME280;50449;51.528;5.076;2023-06-10T04:07:40;101307.25;;;28.27;32.42
64158;BME280;50449;51.528;5.076;2023-06-10T04:10:08;101308.75;;;28.24;32.19
64158;BME280;50449;51.528;5.076;2023-06-10T04:12:34;101317.81;;;28.21;32.41
64158;BME280;50449;51.528;5.076;2023-06-10T04:14:59;101318.16;;;28.20;32.43
64158;BME280;50449;51.528;5.076;2023-06-10T04:17:25;101307.72;;;28.17;32.72
64158;BME280;50449;51.528;5.076;2023-06-10T04:19:51;101316.78;;;28.14;32.74
64158;BME280;50449;51.528;5.076;2023-06-10T04:22:17;101318.28;;;28.11;32.76
64158;BME280;50449;51.528;5.076;2023-06-10T04:24:43;101326.94;;;28.10;33.03
64158;BME280;50449;51.528;5.076;2023-06-10T04:27:08;101330.44;;;28.07;32.77
64158;BME280;50449;51.528;5.076;2023-06-10T04:29:34;101332.28;;;28.02;32.82
64158;BME280;50449;51.528;5.076;2023-06-10T04:31:59;101334.59;;;28.00;32.78
64158;BME280;50449;51.528;5.076;2023-06-10T04:34:26;101329.75;;;27.97;33.00
64158;BME280;50449;51.528;5.076;2023-06-10T04:36:52;101334.03;;;27.95;32.98
64158;BME280;50449;51.528;5.076;2023-06-10T04:39:18;101333.56;;;27.93;33.05
64158;BME280;50449;51.528;5.076;2023-06-10T04:41:43;101337.84;;;27.90;32.95
64158;BME280;50449;51.528;5.076;2023-06-10T04:44:09;101337.38;;;27.88;32.79
64158;BME280;50449;51.528;5.076;2023-06-10T04:46:35;101339.69;;;27.86;33.11
64158;BME280;50449;51.528;5.076;2023-06-10T04:49:01;101340.38;;;27.83;33.10
64158;BME280;50449;51.528;5.076;2023-06-10T04:51:27;101339.06;;;27.80;33.03
64158;BME280;50449;51.528;5.076;2023-06-10T04:53:53;101340.56;;;27.78;32.99
64158;BME280;50449;51.528;5.076;2023-06-10T04:56:18;101338.50;;;27.75;32.98
64158;BME280;50449;51.528;5.076;2023-06-10T04:58:45;101344.38;;;27.73;33.32
64158;BME280;50449;51.528;5.076;2023-06-10T05:01:10;101343.09;;;27.71;33.38
64158;BME280;50449;51.528;5.076;2023-06-10T05:03:35;101348.19;;;27.69;33.75
64158;BME280;50449;51.528;5.076;2023-06-10T05:06:01;101347.72;;;27.67;33.44
64158;BME280;50449;51.528;5.076;2023-06-10T05:08:26;101342.88;;;27.63;33.69
64158;BME280;50449;51.528;5.076;2023-06-10T05:10:52;101347.13;;;27.61;33.41
64158;BME280;50449;51.528;5.076;2023-06-10T05:13:17;101345.84;;;27.58;33.49
64158;BME280;50449;51.528;5.076;2023-06-10T05:15:43;101348.16;;;27.56;33.42
64158;BME280;50449;51.528;5.076;2023-06-10T05:18:10;101348.53;;;27.55;33.99
64158;BME280;50449;51.528;5.076;2023-06-10T05:20:37;101346.44;;;27.52;33.53
64158;BME280;50449;51.528;5.076;2023-06-10T05:23:02;101344.81;;;27.51;33.85
64158;BME280;50449;51.528;5.076;2023-06-10T05:25:30;101339.94;;;27.48;33.87
64158;BME280;50449;51.528;5.076;2023-06-10T05:27:55;101345.81;;;27.46;33.94
64158;BME280;50449;51.528;5.076;2023-06-10T05:30:21;101345.34;;;27.44;33.99
64158;BME280;50449;51.528;5.076;2023-06-10T05:32:46;101345.72;;;27.43;34.22
64158;BME280;50449;51.528;5.076;2023-06-10T05:35:12;101344.06;;;27.41;34.30
64158;BME280;50449;51.528;5.076;2023-06-10T05:37:37;101346.75;;;27.38;34.30
64158;BME280;50449;51.528;5.076;2023-06-10T05:40:03;101339.59;;;27.37;34.38
64158;BME280;50449;51.528;5.076;2023-06-10T05:42:29;101346.25;;;27.36;34.62
64158;BME280;50449;51.528;5.076;2023-06-10T05:44:55;101341.88;;;27.35;34.20
64158;BME280;50449;51.528;5.076;2023-06-10T05:47:20;101343.00;;;27.34;34.11
64158;BME280;50449;51.528;5.076;2023-06-10T05:49:45;101352.50;;;27.33;34.55
64158;BME280;50449;51.528;5.076;2023-06-10T05:52:13;101348.13;;;27.32;34.24
64158;BME280;50449;51.528;5.076;2023-06-10T05:54:38;101355.59;;;27.31;34.53
64158;BME280;50449;51.528;5.076;2023-06-10T05:57:04;101356.78;;;27.30;34.66
64158;BME280;50449;51.528;5.076;2023-06-10T05:59:31;101351.56;;;27.29;34.78
64158;BME280;50449;51.528;5.076;2023-06-10T06:01:56;101351.91;;;27.27;34.82
64158;BME280;50449;51.528;5.076;2023-06-10T06:04:21;101350.63;;;27.25;34.47
64158;BME280;50449;51.528;5.076;2023-06-10T06:06:47;101351.78;;;27.24;34.92
64158;BME280;50449;51.528;5.076;2023-06-10T06:09:12;101356.50;;;27.23;34.49
64158;BME280;50449;51.528;5.076;2023-06-10T06:11:38;101355.72;;;27.23;34.60
64158;BME280;50449;51.528;5.076;2023-06-10T06:14:03;101354.91;;;27.22;34.62
64158;BME280;50449;51.528;5.076;2023-06-10T06:16:29;101354.09;;;27.22;34.81
64158;BME280;50449;51.528;5.076;2023-06-10T06:18:54;101356.88;;;27.22;34.89
64158;BME280;50449;51.528;5.076;2023-06-10T06:21:20;101356.03;;;27.21;34.87
64158;BME280;50449;51.528;5.076;2023-06-10T06:23:45;101361.25;;;27.23;34.93
64158;BME280;50449;51.528;5.076;2023-06-10T06:26:11;101355.72;;;27.23;34.85
64158;BME280;50449;51.528;5.076;2023-06-10T06:28:36;101358.47;;;27.23;34.92
64158;BME280;50449;51.528;5.076;2023-06-10T06:31:01;101350.97;;;27.23;35.23
64158;BME280;50449;51.528;5.076;2023-06-10T06:33:27;101356.50;;;27.23;34.86
64158;BME280;50449;51.528;5.076;2023-06-10T06:35:52;101358.47;;;27.23;35.01
64158;BME280;50449;51.528;5.076;2023-06-10T06:38:18;101363.69;;;27.24;35.01
64158;BME280;50449;51.528;5.076;2023-06-10T06:40:43;101359.75;;;27.25;34.91
64158;BME280;50449;51.528;5.076;2023-06-10T06:43:08;101356.66;;;27.27;35.23
64158;BME280;50449;51.528;5.076;2023-06-10T06:45:34;101361.03;;;27.28;35.24
64158;BME280;50449;51.528;5.076;2023-06-10T06:47:59;101355.50;;;27.28;35.07
64158;BME280;50449;51.528;5.076;2023-06-10T06:50:25;101358.75;;;27.30;35.06
64158;BME280;50449;51.528;5.076;2023-06-10T06:52:51;101357.94;;;27.29;35.24
64158;BME280;50449;51.528;5.076;2023-06-10T06:55:16;101361.16;;;27.31;34.82
64158;BME280;50449;51.528;5.076;2023-06-10T06:57:41;101363.59;;;27.33;35.16
64158;BME280;50449;51.528;5.076;2023-06-10T07:00:07;101366.38;;;27.33;34.70
64158;BME280;50449;51.528;5.076;2023-06-10T07:02:34;101365.22;;;27.34;35.09
64158;BME280;50449;51.528;5.076;2023-06-10T07:05:00;101374.81;;;27.36;35.16
64158;BME280;50449;51.528;5.076;2023-06-10T07:07:26;101373.69;;;27.37;35.62
64158;BME280;50449;51.528;5.076;2023-06-10T07:09:52;101373.31;;;27.39;35.10
64158;BME280;50449;51.528;5.076;2023-06-10T07:12:17;101377.03;;;27.43;35.17
64158;BME280;50449;51.528;5.076;2023-06-10T07:14:44;101366.75;;;27.44;35.19
64158;BME280;50449;51.528;5.076;2023-06-10T07:17:10;101377.16;;;27.47;35.36
64158;BME280;50449;51.528;5.076;2023-06-10T07:19:35;101375.66;;;27.49;35.38
64158;BME280;50449;51.528;5.076;2023-06-10T07:22:00;101377.78;;;27.52;35.25
64158;BME280;50449;51.528;5.076;2023-06-10T07:24:26;101381.81;;;27.55;34.85
64158;BME280;50449;51.528;5.076;2023-06-10T07:26:51;101390.25;;;27.58;34.93
64158;BME280;50449;51.528;5.076;2023-06-10T07:29:17;101378.81;;;27.60;34.89
64158;BME280;50449;51.528;5.076;2023-06-10T07:31:42;101385.66;;;27.62;35.07
64158;BME280;50449;51.528;5.076;2023-06-10T07:34:07;101383.00;;;27.66;35.59
64158;BME280;50449;51.528;5.076;2023-06-10T07:36:33;101385.91;;;27.70;35.32
64158;BME280;50449;51.528;5.076;2023-06-10T07:38:58;101386.81;;;27.74;35.08
64158;BME280;50449;51.528;5.076;2023-06-10T07:41:24;101388.09;;;27.76;35.06
64158;BME280;50449;51.528;5.076;2023-06-10T07:43:55;101393.78;;;27.80;34.69
64158;BME280;50449;51.528;5.076;2023-06-10T07:46:22;101386.41;;;27.84;34.83
64158;BME280;50449;51.528;5.076;2023-06-10T07:48:48;101387.69;;;27.87;35.25
64158;BME280;50449;51.528;5.076;2023-06-10T07:51:15;101396.16;;;27.90;35.37
64158;BME280;50449;51.528;5.076;2023-06-10T07:53:41;101394.28;;;27.94;35.03
64158;BME280;50449;51.528;5.076;2023-06-10T07:56:06;101396.84;;;27.99;34.99
64158;BME280;50449;51.528;5.076;2023-06-10T07:58:32;101392.22;;;28.03;35.12
64158;BME280;50449;51.528;5.076;2023-06-10T08:00:57;101384.84;;;28.08;35.01
64158;BME280;50449;51.528;5.076;2023-06-10T08:03:22;101389.31;;;28.12;34.99
64158;BME280;50449;51.528;5.076;2023-06-10T08:05:48;101389.91;;;28.18;35.39
64158;BME280;50449;51.528;5.076;2023-06-10T08:08:13;101386.91;;;28.23;34.70
64158;BME280;50449;51.528;5.076;2023-06-10T08:10:39;101392.22;;;28.28;34.74
64158;BME280;50449;51.528;5.076;2023-06-10T08:13:04;101386.44;;;28.33;34.81
64158;BME280;50449;51.528;5.076;2023-06-10T08:15:30;101393.38;;;28.39;34.76
64158;BME280;50449;51.528;5.076;2023-06-10T08:17:55;101395.94;;;28.44;34.41
64158;BME280;50449;51.528;5.076;2023-06-10T08:20:21;101395.38;;;28.51;34.02
64158;BME280;50449;51.528;5.076;2023-06-10T08:22:47;101391.56;;;28.56;34.07
64158;BME280;50449;51.528;5.076;2023-06-10T08:25:12;101387.34;;;28.62;34.38
64158;BME280;50449;51.528;5.076;2023-06-10T08:27:38;101397.91;;;28.68;33.85
64158;BME280;50449;51.528;5.076;2023-06-10T08:30:03;101390.13;;;28.74;34.41
64158;BME280;50449;51.528;5.076;2023-06-10T08:32:29;101388.69;;;28.80;34.39
64158;BME280;50449;51.528;5.076;2023-06-10T08:34:55;101390.91;;;28.87;34.30
64158;BME280;50449;51.528;5.076;2023-06-10T08:37:20;101391.09;;;28.94;33.82
64158;BME280;50449;51.528;5.076;2023-06-10T08:39:46;101386.09;;;29.00;34.15
64158;BME280;50449;51.528;5.076;2023-06-10T08:42:33;101391.56;;;29.08;33.93
64158;BME280;50449;51.528;5.076;2023-06-10T08:45:00;101392.91;;;29.15;33.78
64158;BME280;50449;51.528;5.076;2023-06-10T08:47:27;101393.47;;;29.20;34.04
64158;BME280;50449;51.528;5.076;2023-06-10T08:49:57;101392.06;;;29.26;33.94
64158;BME280;50449;51.528;5.076;2023-06-10T08:52:29;101385.53;;;29.34;34.08
64158;BME280;50449;51.528;5.076;2023-06-10T08:55:10;101396.88;;;29.42;34.21
64158;BME280;50449;51.528;5.076;2023-06-10T08:57:36;101397.88;;;29.49;33.82
64158;BME280;50449;51.528;5.076;2023-06-10T09:00:02;101396.09;;;29.57;33.25
64158;BME280;50449;51.528;5.076;2023-06-10T09:02:28;101389.56;;;29.65;32.93
64158;BME280;50449;51.528;5.076;2023-06-10T09:04:55;101391.34;;;29.73;32.77
64158;BME280;50449;51.528;5.076;2023-06-10T09:07:21;101389.94;;;29.80;33.23
64158;BME280;50449;51.528;5.076;2023-06-10T09:09:48;101394.53;;;29.88;32.94
64158;BME280;50449;51.528;5.076;2023-06-10T09:12:15;101389.94;;;29.95;32.22
64158;BME280;50449;51.528;5.076;2023-06-10T09:14:43;101384.56;;;30.03;32.02
64158;BME280;50449;51.528;5.076;2023-06-10T09:17:09;101393.88;;;30.10;32.98
64158;BME280;50449;51.528;5.076;2023-06-10T09:19:35;101390.09;;;30.18;32.57
64158;BME280;50449;51.528;5.076;2023-06-10T09:22:02;101387.53;;;30.26;32.24
64158;BME280;50449;51.528;5.076;2023-06-10T09:24:27;101392.91;;;30.34;32.44
64158;BME280;50449;51.528;5.076;2023-06-10T09:27:05;101395.50;;;30.43;32.75
64158;BME280;50449;51.528;5.076;2023-06-10T09:29:32;101388.91;;;30.51;32.91
64158;BME280;50449;51.528;5.076;2023-06-10T09:32:00;101380.72;;;30.58;32.83
64158;BME280;50449;51.528;5.076;2023-06-10T09:34:26;101391.66;;;30.67;32.44
64158;BME280;50449;51.528;5.076;2023-06-10T09:36:52;101383.88;;;30.76;31.23
64158;BME280;50449;51.528;5.076;2023-06-10T09:39:18;101380.94;;;30.85;31.55
64158;BME280;50449;51.528;5.076;2023-06-10T09:41:45;101385.47;;;30.93;31.71
64158;BME280;50449;51.528;5.076;2023-06-10T09:44:21;101384.88;;;31.03;32.59
64158;BME280;50449;51.528;5.076;2023-06-10T09:46:48;101388.28;;;31.13;31.67
64158;BME280;50449;51.528;5.076;2023-06-10T09:49:13;101391.63;;;31.22;31.52
64158;BME280;50449;51.528;5.076;2023-06-10T09:51:52;101383.03;;;31.31;30.81
64158;BME280;50449;51.528;5.076;2023-06-10T09:54:19;101383.63;;;31.40;30.62
64158;BME280;50449;51.528;5.076;2023-06-10T09:56:47;101380.63;;;31.48;31.35
64158;BME280;50449;51.528;5.076;2023-06-10T09:59:13;101378.75;;;31.56;30.18
64158;BME280;50449;51.528;5.076;2023-06-10T10:01:38;101373.75;;;31.65;31.23
64158;BME280;50449;51.528;5.076;2023-06-10T10:04:04;101371.50;;;31.75;30.84
64158;BME280;50449;51.528;5.076;2023-06-10T10:06:30;101375.66;;;31.84;30.52
64158;BME280;50449;51.528;5.076;2023-06-10T10:08:56;101367.41;;;31.91;30.22
64158;BME280;50449;51.528;5.076;2023-06-10T10:11:22;101373.56;;;32.01;29.64
64158;BME280;50449;51.528;5.076;2023-06-10T10:13:49;101366.56;;;32.10;29.01
64158;BME280;50449;51.528;5.076;2023-06-10T10:16:17;101371.84;;;32.19;29.57
64158;BME280;50449;51.528;5.076;2023-06-10T10:18:52;101362.41;;;32.27;29.04
64158;BME280;50449;51.528;5.076;2023-06-10T10:21:22;101363.75;;;32.37;29.26
64158;BME280;50449;51.528;5.076;2023-06-10T10:24:09;101365.06;;;32.47;29.58
64158;BME280;50449;51.528;5.076;2023-06-10T10:26:38;101357.25;;;32.56;29.24
64158;BME280;50449;51.528;5.076;2023-06-10T10:31:44;101362.25;;;32.73;28.37
64158;BME280;50449;51.528;5.076;2023-06-10T10:34:16;101361.97;;;32.82;27.90
64158;BME280;50449;51.528;5.076;2023-06-10T10:36:44;101361.69;;;32.91;28.08
64158;BME280;50449;51.528;5.076;2023-06-10T10:39:10;101362.19;;;33.00;28.55
64158;BME280;50449;51.528;5.076;2023-06-10T10:41:38;101356.34;;;33.09;28.08
64158;BME280;50449;51.528;5.076;2023-06-10T10:44:06;101347.63;;;33.17;27.24
64158;BME280;50449;51.528;5.076;2023-06-10T10:46:44;101354.53;;;33.27;27.44
64158;BME280;50449;51.528;5.076;2023-06-10T10:49:13;101350.63;;;33.35;27.27
64158;BME280;50449;51.528;5.076;2023-06-10T10:52:00;101351.91;;;33.45;27.90
64158;BME280;50449;51.528;5.076;2023-06-10T10:54:30;101362.00;;;33.53;27.24
64158;BME280;50449;51.528;5.076;2023-06-10T10:57:28;101362.13;;;33.64;26.90
64158;BME280;50449;51.528;5.076;2023-06-10T10:59:54;101350.97;;;33.71;28.53
64158;BME280;50449;51.528;5.076;2023-06-10T11:02:42;101351.47;;;33.80;27.17
64158;BME280;50449;51.528;5.076;2023-06-10T11:05:10;101351.53;;;33.88;26.79
64158;BME280;50449;51.528;5.076;2023-06-10T11:07:36;101341.97;;;33.96;27.55
64158;BME280;50449;51.528;5.076;2023-06-10T11:10:09;101354.03;;;34.03;28.26
64158;BME280;50449;51.528;5.076;2023-06-10T11:12:53;101343.31;;;34.13;27.15
64158;BME280;50449;51.528;5.076;2023-06-10T11:15:24;101346.19;;;34.20;27.21
64158;BME280;50449;51.528;5.076;2023-06-10T11:18:10;101352.22;;;34.29;28.68
64158;BME280;50449;51.528;5.076;2023-06-10T11:26:16;101330.72;;;34.55;27.55
64158;BME280;50449;51.528;5.076;2023-06-10T11:29:01;101333.59;;;34.62;26.31
64158;BME280;50449;51.528;5.076;2023-06-10T11:31:50;101344.91;;;34.73;27.17
64158;BME280;50449;51.528;5.076;2023-06-10T11:34:23;101335.31;;;34.81;25.87
64158;BME280;50449;51.528;5.076;2023-06-10T11:36:51;101333.31;;;34.88;26.03
64158;BME280;50449;51.528;5.076;2023-06-10T11:39:17;101325.31;;;34.98;26.37
64158;BME280;50449;51.528;5.076;2023-06-10T11:41:43;101328.13;;;35.05;25.82
64158;BME280;50449;51.528;5.076;2023-06-10T11:44:13;101323.00;;;35.14;25.00
64158;BME280;50449;51.528;5.076;2023-06-10T11:46:40;101320.19;;;35.21;25.41
64158;BME280;50449;51.528;5.076;2023-06-10T11:49:07;101330.22;;;35.29;25.46
64158;BME280;50449;51.528;5.076;2023-06-10T11:51:35;101323.84;;;35.36;24.22
64158;BME280;50449;51.528;5.076;2023-06-10T11:54:02;101324.66;;;35.44;23.97
64158;BME280;50449;51.528;5.076;2023-06-10T11:56:30;101319.84;;;35.51;24.10
64158;BME280;50449;51.528;5.076;2023-06-10T11:58:56;101317.44;;;35.61;24.60
64158;BME280;50449;51.528;5.076;2023-06-10T12:01:25;101311.81;;;35.68;24.50
64158;BME280;50449;51.528;5.076;2023-06-10T12:04:06;101309.00;;;35.75;23.66
64158;BME280;50449;51.528;5.076;2023-06-10T12:09:24;101304.19;;;35.90;23.63
64158;BME280;50449;51.528;5.076;2023-06-10T12:14:52;101305.75;;;36.05;24.67
64158;BME280;50449;51.528;5.076;2023-06-10T12:17:23;101300.94;;;36.13;24.59
64158;BME280;50449;51.528;5.076;2023-06-10T12:19:49;101302.94;;;36.20;24.40
64158;BME280;50449;51.528;5.076;2023-06-10T12:22:15;101308.56;;;36.27;23.19
64158;BME280;50449;51.528;5.076;2023-06-10T12:25:03;101301.69;;;36.35;25.20
64158;BME280;50449;51.528;5.076;2023-06-10T12:27:30;101296.84;;;36.43;24.16
64158;BME280;50449;51.528;5.076;2023-06-10T12:29:57;101297.22;;;36.48;23.86
64158;BME280;50449;51.528;5.076;2023-06-10T12:32:45;101303.63;;;36.56;23.52
64158;BME280;50449;51.528;5.076;2023-06-10T12:35:12;101297.19;;;36.63;23.48
64158;BME280;50449;51.528;5.076;2023-06-10T12:37:41;101306.41;;;36.70;23.72
64158;BME280;50449;51.528;5.076;2023-06-10T12:40:07;101287.06;;;36.76;24.75
64158;BME280;50449;51.528;5.076;2023-06-10T12:42:36;101298.69;;;36.81;24.61
64158;BME280;50449;51.528;5.076;2023-06-10T12:45:03;101298.25;;;36.87;22.95
64158;BME280;50449;51.528;5.076;2023-06-10T12:47:33;101299.00;;;36.94;22.70
64158;BME280;50449;51.528;5.076;2023-06-10T12:50:01;101296.59;;;37.00;22.85
64158;BME280;50449;51.528;5.076;2023-06-10T12:52:28;101289.31;;;37.06;22.94
64158;BME280;50449;51.528;5.076;2023-06-10T12:54:54;101286.06;;;37.11;24.12
64158;BME280;50449;51.528;5.076;2023-06-10T12:57:20;101287.66;;;37.16;22.77
64158;BME280;50449;51.528;5.076;2023-06-10T12:59:46;101288.00;;;37.21;23.56
64158;BME280;50449;51.528;5.076;2023-06-10T13:02:17;101289.19;;;37.28;23.49
64158;BME280;50449;51.528;5.076;2023-06-10T13:04:49;101281.88;;;37.34;22.95
64158;BME280;50449;51.528;5.076;2023-06-10T13:07:15;101287.06;;;37.39;22.13